Time;durP1;ratioP1;P1;durP2;ratioP2;P2;SDS_P1;SDS_P2;PMS_P1;PMS_P2;Temp;Humidity;BMP_temperature;BMP_pressure;BME280_temperature;BME280_humidity;BME280_pressure;Samples;Min_cycle;Max_cycle;Signal;HPM_P1;HPM_P2
2023/10/30 00:01:32;;;;;;;21.03;19.20;;;12.00;86.00;;;;;;5055749;28;20172;-90
2023/10/30 00:03:57;;;;;;;20.67;18.97;;;12.00;86.40;;;;;;5055490;28;20173;-89
2023/10/30 00:06:23;;;;;;;19.27;17.77;;;12.00;85.90;;;;;;5037425;28;20283;-89
2023/10/30 00:08:48;;;;;;;19.07;17.63;;;12.00;85.90;;;;;;5038835;28;20180;-90
2023/10/30 00:11:14;;;;;;;19.80;18.20;;;11.90;86.50;;;;;;5037605;28;20617;-90
2023/10/30 00:13:41;;;;;;;21.23;19.17;;;12.00;86.40;;;;;;5037349;28;20180;-89
2023/10/30 00:16:09;;;;;;;20.67;18.63;;;12.00;86.40;;;;;;5055055;28;20185;-88
2023/10/30 00:18:35;;;;;;;20.00;18.70;;;12.00;86.40;;;;;;5055114;28;20255;-90
2023/10/30 00:21:01;;;;;;;20.63;18.83;;;11.90;86.30;;;;;;5037298;28;20187;-90
2023/10/30 00:23:27;;;;;;;19.80;18.30;;;11.90;86.40;;;;;;5037373;28;20179;-90
2023/10/30 00:25:55;;;;;;;19.83;18.20;;;11.90;86.70;;;;;;5054802;28;20196;-90
2023/10/30 00:28:20;;;;;;;20.67;18.97;;;11.90;86.40;;;;;;5054833;28;20172;-89
2023/10/30 00:30:46;;;;;;;20.10;18.30;;;11.80;86.50;;;;;;5037059;28;20570;-89
2023/10/30 00:33:13;;;;;;;19.67;18.10;;;11.90;86.40;;;;;;5054791;28;20172;-89
2023/10/30 00:35:38;;;;;;;19.07;17.40;;;11.80;86.40;;;;;;5036850;28;20192;-91
2023/10/30 00:38:04;;;;;;;20.30;18.80;;;11.80;86.50;;;;;;5037042;28;20222;-89
2023/10/30 00:40:29;;;;;;;21.60;19.73;;;11.80;86.30;;;;;;5037388;28;20233;-89
2023/10/30 00:42:55;;;;;;;19.60;18.23;;;11.80;86.70;;;;;;5036874;28;20176;-88
2023/10/30 00:45:20;;;;;;;22.50;17.73;;;11.70;86.80;;;;;;5035991;28;20192;-88
2023/10/30 00:47:46;;;;;;;19.20;17.70;;;11.70;87.00;;;;;;5054607;28;20164;-90
2023/10/30 00:50:11;;;;;;;20.47;18.60;;;11.70;87.00;;;;;;5036605;28;20177;-91
2023/10/30 00:52:37;;;;;;;19.30;17.67;;;11.70;86.70;;;;;;5036560;28;20171;-90
2023/10/30 00:55:03;;;;;;;20.85;18.55;;;11.80;86.70;;;;;;5054397;28;20199;-89
2023/10/30 00:57:28;;;;;;;;;;;11.70;86.80;;;;;;5036864;28;20395;-90
2023/10/30 00:59:54;;;;;;;;;;;11.70;86.80;;;;;;5036798;28;19904;-88
2023/10/30 01:02:19;;;;;;;;;;;11.70;87.00;;;;;;5054795;28;20098;-90
2023/10/30 01:04:45;;;;;;;18.13;16.73;;;11.60;87.20;;;;;;5054213;28;20925;-90
2023/10/30 01:07:11;;;;;;;19.07;17.47;;;11.60;87.30;;;;;;5036499;28;20579;-91
2023/10/30 01:09:36;;;;;;;19.20;17.47;;;11.40;87.70;;;;;;5036459;28;20165;-91
2023/10/30 01:12:01;;;;;;;;;;;11.50;87.20;;;;;;5037212;28;20195;-90
2023/10/30 01:14:27;;;;;;;;;;;11.40;87.30;;;;;;5056812;28;20430;-90
2023/10/30 01:16:52;;;;;;;;;;;11.30;87.30;;;;;;5054488;28;19940;-89
2023/10/30 01:19:18;;;;;;;;;;;11.30;87.20;;;;;;5055059;28;20368;-89
2023/10/30 01:21:45;;;;;;;28.07;25.93;;;11.30;87.20;;;;;;5036450;28;19943;-89
2023/10/30 01:24:11;;;;;;;28.80;26.73;;;11.30;87.30;;;;;;5036854;28;20237;-89
2023/10/30 01:26:38;;;;;;;28.67;26.40;;;11.20;87.40;;;;;;5036092;28;20220;-91
2023/10/30 01:29:04;;;;;;;28.90;26.60;;;11.10;87.70;;;;;;5054069;28;20167;-90
2023/10/30 01:31:30;;;;;;;29.50;27.17;;;11.10;87.70;;;;;;5036076;28;20286;-90
2023/10/30 01:33:56;;;;;;;28.07;26.33;;;11.00;87.60;;;;;;5036090;28;20656;-90
2023/10/30 01:36:21;;;;;;;29.03;26.90;;;11.00;87.60;;;;;;5053607;28;20196;-90
2023/10/30 01:38:47;;;;;;;28.57;26.20;;;11.10;87.40;;;;;;5035930;28;20168;-90
2023/10/30 01:41:13;;;;;;;30.33;27.63;;;11.20;86.90;;;;;;5036203;28;20206;-90
2023/10/30 01:43:38;;;;;;;29.15;26.70;;;11.10;87.10;;;;;;5036085;28;20172;-90
2023/10/30 01:46:05;;;;;;;30.93;28.50;;;11.10;87.10;;;;;;5035958;28;20238;-91
2023/10/30 01:48:35;;;;;;;18.50;17.03;;;11.00;87.10;;;;;;5035776;28;20631;-90
2023/10/30 01:51:04;;;;;;;18.03;16.37;;;11.00;87.10;;;;;;5035734;28;20203;-90
2023/10/30 01:53:32;;;;;;;20.97;18.10;;;11.00;87.10;;;;;;5036832;28;20172;-91
2023/10/30 01:55:58;;;;;;;28.60;26.60;;;11.00;87.10;;;;;;5036457;28;20599;-91
2023/10/30 01:58:24;;;;;;;28.97;27.10;;;11.00;87.00;;;;;;5053746;28;20168;-90
2023/10/30 02:00:50;;;;;;;18.37;16.97;;;10.90;87.10;;;;;;5035701;28;20191;-91
2023/10/30 02:03:16;;;;;;;19.27;17.10;;;11.00;87.00;;;;;;5035718;28;20179;-89
2023/10/30 02:05:42;;;;;;;26.80;24.97;;;11.00;87.10;;;;;;5036025;28;20196;-90
2023/10/30 02:08:09;;;;;;;28.23;26.23;;;11.00;87.20;;;;;;5036138;28;20183;-88
2023/10/30 02:10:35;;;;;;;31.60;29.17;;;10.90;87.10;;;;;;5053218;28;20191;-90
2023/10/30 02:13:04;;;;;;;18.30;16.87;;;11.00;87.10;;;;;;5035552;28;20567;-90
2023/10/30 02:15:30;;;;;;;20.30;16.20;;;10.90;87.10;;;;;;5035651;28;19909;-90
2023/10/30 02:17:56;;;;;;;;;;;10.90;87.10;;;;;;5053599;28;20172;-91
2023/10/30 02:20:21;;;;;;;;;;;11.00;86.70;;;;;;5053819;28;19905;-91
2023/10/30 02:22:46;;;;;;;;;;;11.00;86.80;;;;;;5053952;28;19912;-90
2023/10/30 02:25:12;;;;;;;;;;;10.90;86.90;;;;;;5035568;28;19991;-90
2023/10/30 02:27:37;;;;;;;18.30;16.90;;;11.00;86.70;;;;;;5035526;28;19959;-90
2023/10/30 02:30:04;;;;;;;18.40;16.93;;;11.00;86.70;;;;;;5035156;28;20164;-90
2023/10/30 02:32:29;;;;;;;;;;;11.00;86.90;;;;;;5035507;28;20360;-91
2023/10/30 02:34:55;;;;;;;;;;;11.00;87.10;;;;;;5053354;28;19904;-91
2023/10/30 02:37:20;;;;;;;19.50;17.90;;;10.90;87.10;;;;;;5053171;28;20208;-90
2023/10/30 02:39:46;;;;;;;17.50;15.67;;;10.90;87.10;;;;;;5053025;28;20172;-90
2023/10/30 02:42:12;;;;;;;17.70;15.90;;;10.90;87.10;;;;;;5036081;28;20287;-90
2023/10/30 02:44:38;;;;;;;17.97;16.13;;;11.00;87.00;;;;;;5053320;28;20289;-90
2023/10/30 02:47:03;;;;;;;18.00;16.50;;;11.00;87.00;;;;;;5035206;28;20185;-90
2023/10/30 02:49:29;;;;;;;17.97;16.30;;;11.00;87.20;;;;;;5053044;28;20298;-90
2023/10/30 02:51:54;;;;;;;18.40;16.73;;;10.90;87.30;;;;;;5053361;28;20271;-90
2023/10/30 02:54:20;;;;;;;18.10;16.60;;;11.00;87.20;;;;;;5035248;28;20245;-90
2023/10/30 02:56:46;;;;;;;17.37;15.77;;;10.90;87.30;;;;;;5034892;28;20220;-90
2023/10/30 02:59:11;;;;;;;18.77;16.90;;;10.80;87.60;;;;;;5052815;28;20243;-90
2023/10/30 03:01:37;;;;;;;18.37;16.30;;;10.80;87.80;;;;;;5035021;28;20214;-90
2023/10/30 03:04:02;;;;;;;18.00;16.30;;;10.80;87.70;;;;;;5052793;28;20238;-91
2023/10/30 03:06:28;;;;;;;17.90;16.23;;;10.80;87.60;;;;;;5034898;28;20245;-90
2023/10/30 03:08:54;;;;;;;18.33;16.47;;;10.80;87.80;;;;;;5036778;28;20556;-90
2023/10/30 03:11:20;;;;;;;17.97;16.10;;;10.80;87.80;;;;;;5038622;28;20204;-91
2023/10/30 03:13:45;;;;;;;18.40;16.33;;;10.70;88.00;;;;;;5056733;28;20255;-91
2023/10/30 03:16:11;;;;;;;17.20;15.80;;;10.80;87.90;;;;;;5038532;28;20234;-90
2023/10/30 03:18:37;;;;;;;16.37;14.70;;;10.80;87.80;;;;;;5038560;28;20176;-90
2023/10/30 03:21:04;;;;;;;;;;;10.90;87.60;;;;;;5038718;28;20214;-90
2023/10/30 03:23:29;;;;;;;27.43;25.53;;;10.80;87.80;;;;;;5039788;28;19912;-90
2023/10/30 03:25:55;;;;;;;27.33;24.73;;;10.80;87.90;;;;;;5038220;28;20212;-91
2023/10/30 03:28:20;;;;;;;26.77;24.20;;;10.80;88.00;;;;;;5038371;28;20202;-91
2023/10/30 03:30:46;;;;;;;26.50;24.23;;;10.80;88.00;;;;;;5038215;28;20295;-90
2023/10/30 03:33:11;;;;;;;27.27;25.00;;;10.80;88.10;;;;;;5056306;28;20183;-90
2023/10/30 03:35:38;;;;;;;27.87;25.37;;;10.90;87.80;;;;;;5058417;28;20196;-92
2023/10/30 03:38:04;;;;;;;27.60;25.57;;;10.90;87.80;;;;;;5056221;28;20168;-90
2023/10/30 03:40:31;;;;;;;27.80;25.63;;;10.80;88.00;;;;;;5038124;28;20223;-90
2023/10/30 03:42:56;;;;;;;26.73;24.83;;;10.90;88.00;;;;;;5056310;28;20172;-90
2023/10/30 03:45:22;;;;;;;29.33;27.00;;;11.00;87.60;;;;;;5037945;28;20192;-90
2023/10/30 03:47:47;;;;;;;27.70;25.00;;;11.00;87.60;;;;;;5038036;28;20172;-90
2023/10/30 03:50:13;;;;;;;26.87;24.93;;;11.00;87.80;;;;;;5055728;28;20530;-91
2023/10/30 03:52:40;;;;;;;28.70;26.60;;;11.00;87.60;;;;;;5038000;28;20175;-91
2023/10/30 03:55:06;;;;;;;30.00;27.47;;;11.00;87.50;;;;;;5037895;28;20667;-91
2023/10/30 03:57:31;;;;;;;17.80;16.20;;;11.00;87.60;;;;;;5040068;28;20176;-92
2023/10/30 03:59:57;;;;;;;19.30;17.37;;;11.10;87.50;;;;;;5042023;28;20173;-90
2023/10/30 04:02:23;;;;;;;26.60;24.73;;;11.00;87.60;;;;;;5037751;28;20183;-90
2023/10/30 04:04:49;;;;;;;31.03;28.00;;;11.20;87.50;;;;;;5037664;28;20206;-91
2023/10/30 04:07:14;;;;;;;18.90;17.20;;;11.10;87.60;;;;;;5037912;28;20647;-90
2023/10/30 04:09:40;;;;;;;19.40;17.13;;;11.10;87.70;;;;;;5037724;28;20208;-90
2023/10/30 04:12:06;;;;;;;17.73;16.00;;;11.20;87.60;;;;;;5037690;28;20207;-91
2023/10/30 04:14:32;;;;;;;28.40;25.90;;;11.10;87.80;;;;;;5038010;28;20199;-90
2023/10/30 04:16:58;;;;;;;30.40;27.77;;;11.20;87.50;;;;;;5055907;28;20540;-90
2023/10/30 04:19:23;;;;;;;21.73;17.30;;;11.20;87.80;;;;;;5055236;28;20164;-90
2023/10/30 04:21:49;;;;;;;19.83;17.23;;;11.20;87.70;;;;;;5036762;28;20718;-90
2023/10/30 04:24:14;;;;;;;18.77;17.07;;;11.20;87.60;;;;;;5037883;28;20188;-90
2023/10/30 04:26:40;;;;;;;19.47;17.60;;;11.20;87.80;;;;;;5037264;28;20265;-90
2023/10/30 04:29:05;;;;;;;19.27;17.47;;;11.20;87.60;;;;;;5037262;28;20184;-90
2023/10/30 04:31:31;;;;;;;19.00;17.03;;;11.20;87.80;;;;;;5054923;28;20200;-91
2023/10/30 04:33:56;;;;;;;;;;;11.10;87.90;;;;;;5037517;28;19912;-91
2023/10/30 04:36:22;;;;;;;;;;;11.20;88.10;;;;;;5037427;28;19904;-90
2023/10/30 04:38:49;;;;;;;19.77;17.67;;;11.20;87.90;;;;;;5037060;28;20182;-90
2023/10/30 04:41:15;;;;;;;21.27;17.10;;;11.20;87.80;;;;;;5037282;28;20293;-89
2023/10/30 04:43:40;;;;;;;21.37;16.70;;;11.30;87.70;;;;;;5054798;28;20206;-91
2023/10/30 04:46:07;;;;;;;17.40;15.73;;;11.20;87.80;;;;;;5037395;28;20230;-90
2023/10/30 04:48:33;;;;;;;18.27;16.47;;;11.30;87.60;;;;;;5036930;28;20647;-91
2023/10/30 04:50:59;;;;;;;18.10;16.23;;;11.30;87.50;;;;;;5054476;28;20210;-90
2023/10/30 04:53:25;;;;;;;18.27;16.57;;;11.30;87.30;;;;;;5036714;28;20268;-90
2023/10/30 04:55:51;;;;;;;17.13;15.83;;;11.30;87.40;;;;;;5054835;28;20212;-90
2023/10/30 04:58:17;;;;;;;18.20;16.00;;;11.40;87.10;;;;;;5036728;28;20180;-91
2023/10/30 05:00:43;;;;;;;20.00;17.80;;;11.40;86.90;;;;;;5036723;28;20240;-90
2023/10/30 05:03:09;;;;;;;18.87;17.07;;;11.40;87.00;;;;;;5054536;28;20184;-90
2023/10/30 05:05:35;;;;;;;;;;;11.30;87.20;;;;;;5036722;28;20200;-90
2023/10/30 05:08:00;;;;;;;;;;;11.30;87.20;;;;;;5036985;28;19927;-90
2023/10/30 05:10:26;;;;;;;19.07;17.13;;;11.30;87.20;;;;;;5036450;28;20388;-90
2023/10/30 05:12:52;;;;;;;19.50;17.57;;;11.30;87.20;;;;;;5036399;28;20259;-91
2023/10/30 05:15:18;;;;;;;19.13;17.60;;;11.30;87.30;;;;;;5036421;28;20210;-90
2023/10/30 05:17:43;;;;;;;22.60;20.60;;;11.30;87.50;;;;;;5036334;28;20171;-90
2023/10/30 05:20:09;;;;;;;24.30;21.93;;;11.30;87.30;;;;;;5036275;28;20183;-90
2023/10/30 05:22:35;;;;;;;23.73;21.37;;;11.30;87.20;;;;;;5036237;28;20178;-90
2023/10/30 05:25:02;;;;;;;23.10;21.20;;;11.30;87.40;;;;;;5035965;28;20253;-90
2023/10/30 05:27:28;;;;;;;23.50;21.40;;;11.30;87.50;;;;;;5053982;28;20690;-90
2023/10/30 05:29:54;;;;;;;22.57;20.80;;;11.30;87.20;;;;;;5054038;28;20164;-90
2023/10/30 05:32:20;;;;;;;35.83;32.17;;;11.20;87.50;;;;;;5053580;28;20208;-91
2023/10/30 05:34:48;;;;;;;34.37;31.60;;;11.20;87.80;;;;;;5036001;28;20196;-90
2023/10/30 05:37:15;;;;;;;34.60;31.73;;;11.20;87.70;;;;;;5053932;28;20230;-90
2023/10/30 05:39:41;;;;;;;34.60;31.67;;;11.30;87.40;;;;;;5054201;28;20217;-90
2023/10/30 05:42:06;;;;;;;35.77;32.47;;;11.20;87.70;;;;;;5035882;28;20187;-90
2023/10/30 05:44:32;;;;;;;32.45;29.50;;;11.20;87.30;;;;;;5035914;28;20222;-89
2023/10/30 05:46:58;;;;;;;36.17;33.33;;;11.20;87.70;;;;;;5035988;28;19908;-90
2023/10/30 05:49:25;;;;;;;36.73;33.10;;;11.10;87.80;;;;;;5035732;28;20643;-90
2023/10/30 05:51:51;;;;;;;35.33;32.10;;;11.10;87.90;;;;;;5035907;28;20303;-90
2023/10/30 05:54:17;;;;;;;36.53;33.17;;;11.10;87.90;;;;;;5036043;28;20608;-90
2023/10/30 05:56:42;;;;;;;34.60;31.67;;;11.10;87.80;;;;;;5035703;28;20283;-91
2023/10/30 05:59:08;;;;;;;36.63;33.17;;;11.10;87.80;;;;;;5035702;28;20640;-89
2023/10/30 06:01:33;;;;;;;42.23;39.00;;;11.00;88.00;;;;;;5035631;28;20184;-90
2023/10/30 06:03:59;;;;;;;23.47;21.37;;;11.00;88.20;;;;;;5053466;28;20263;-91
2023/10/30 06:06:24;;;;;;;23.90;20.95;;;11.00;88.20;;;;;;5035525;28;20227;-90
2023/10/30 06:08:50;;;;;;;36.53;33.33;;;11.00;88.20;;;;;;5036931;28;20176;-89
2023/10/30 06:11:16;;;;;;;37.07;33.93;;;11.00;88.10;;;;;;5035366;28;20216;-88
2023/10/30 06:13:41;;;;;;;38.83;35.53;;;10.90;88.30;;;;;;5035397;28;20234;-91
2023/10/30 06:16:12;;;;;;;27.63;24.73;;;10.90;88.20;;;;;;5053326;28;20210;-92
2023/10/30 06:18:41;;;;;;;25.43;23.07;;;10.90;88.20;;;;;;5035481;28;20522;-90
2023/10/30 06:21:07;;;;;;;25.70;23.80;;;10.90;88.20;;;;;;5035496;28;20747;-90
2023/10/30 06:23:34;;;;;;;26.87;24.10;;;11.00;87.90;;;;;;5035422;28;20184;-91
2023/10/30 06:25:59;;;;;;;26.97;24.07;;;10.90;88.00;;;;;;5035157;28;20623;-88
2023/10/30 06:28:25;;;;;;;27.67;25.00;;;10.90;88.20;;;;;;5053347;28;20271;-91
2023/10/30 06:30:51;;;;;;;26.73;24.43;;;10.80;88.30;;;;;;5035311;28;20230;-90
2023/10/30 06:33:16;;;;;;;27.20;24.77;;;10.80;88.50;;;;;;5035267;28;20219;-91
2023/10/30 06:35:42;;;;;;;28.07;25.77;;;10.70;88.60;;;;;;5035660;28;20192;-91
2023/10/30 06:38:07;;;;;;;31.10;25.47;;;10.80;88.60;;;;;;5035354;28;20556;-90
2023/10/30 06:40:42;;;;;;;27.10;24.10;;;10.70;88.60;;;;;;5035171;28;20179;-90
2023/10/30 06:43:07;;;;;;;27.97;24.93;;;10.80;88.80;;;;;;5053483;28;20258;-90
2023/10/30 06:45:33;;;;;;;27.90;25.37;;;10.80;88.70;;;;;;5056853;28;20282;-91
2023/10/30 06:47:58;;;;;;;25.60;23.17;;;10.70;88.70;;;;;;5039886;28;20258;-90
2023/10/30 06:50:24;;;;;;;25.73;23.43;;;10.70;88.90;;;;;;5056901;28;20552;-90
2023/10/30 06:52:49;;;;;;;30.03;24.67;;;10.60;89.10;;;;;;5039120;28;20180;-91
2023/10/30 06:55:16;;;;;;;29.27;26.43;;;10.60;89.30;;;;;;5056797;28;20203;-90
2023/10/30 06:57:41;;;;;;;29.03;26.23;;;10.50;89.40;;;;;;5038929;28;20602;-90
2023/10/30 07:00:08;;;;;;;32.27;28.87;;;10.40;89.70;;;;;;5039137;28;20172;-90
2023/10/30 07:02:34;;;;;;;31.05;28.30;;;10.40;89.90;;;;;;5039001;28;20204;-91
2023/10/30 07:05:00;;;;;;;29.23;26.77;;;10.30;90.00;;;;;;5038721;28;20199;-91
2023/10/30 07:07:26;;;;;;;28.83;26.27;;;10.30;90.30;;;;;;5038701;28;20595;-91
2023/10/30 07:09:51;;;;;;;30.67;27.73;;;10.30;90.40;;;;;;5038831;28;20176;-90
2023/10/30 07:12:17;;;;;;;30.47;27.37;;;10.30;90.40;;;;;;5038581;28;20282;-90
2023/10/30 07:14:42;;;;;;;29.13;26.60;;;10.30;90.30;;;;;;5038643;28;20555;-89
2023/10/30 07:17:08;;;;;;;29.90;26.90;;;10.30;90.40;;;;;;5038616;28;20257;-90
2023/10/30 07:19:33;;;;;;;30.80;27.80;;;10.20;90.60;;;;;;5038561;28;20153;-90
2023/10/30 07:22:00;;;;;;;32.67;28.93;;;10.20;90.70;;;;;;5038802;28;20644;-92
2023/10/30 07:24:26;;;;;;;30.90;28.17;;;10.20;90.70;;;;;;5038641;28;20183;-89
2023/10/30 07:26:51;;;;;;;;;;;10.20;90.80;;;;;;5056631;28;19913;-89
2023/10/30 07:29:17;;;;;;;;;;;10.20;90.90;;;;;;5038682;28;20384;-89
2023/10/30 07:31:42;;;;;;;;;;;10.20;90.80;;;;;;5039742;28;19909;-91
2023/10/30 07:34:08;;;;;;;;;;;10.20;90.90;;;;;;5038731;28;19944;-90
2023/10/30 07:36:33;;;;;;;;;;;10.20;90.90;;;;;;5038938;28;19904;-89
2023/10/30 07:38:58;;;;;;;;;;;10.20;91.10;;;;;;5039021;28;19966;-89
2023/10/30 07:41:24;;;;;;;;;;;10.30;91.00;;;;;;5038460;28;19905;-90
2023/10/30 07:43:49;;;;;;;;;;;10.30;90.90;;;;;;5038564;28;19908;-90
2023/10/30 07:46:15;;;;;;;;;;;10.30;91.00;;;;;;5056214;28;19954;-91
2023/10/30 07:48:40;;;;;;;;;;;10.30;91.00;;;;;;5038302;28;19920;-90
2023/10/30 07:51:06;;;;;;;;;;;10.30;91.00;;;;;;5056295;28;19908;-91
2023/10/30 07:53:31;;;;;;;;;;;10.40;91.10;;;;;;5038475;28;19995;-90
2023/10/30 07:55:57;;;;;;;;;;;10.40;91.00;;;;;;5038121;28;19912;-90
2023/10/30 07:58:22;;;;;;;;;;;10.50;91.10;;;;;;5038508;28;19912;-90
2023/10/30 08:00:48;;;;;;;;;;;10.60;91.00;;;;;;5038340;28;19951;-90
2023/10/30 08:03:14;;;;;;;;;;;10.60;90.90;;;;;;5038232;28;19911;-90
2023/10/30 08:05:40;;;;;;;27.23;22.20;;;10.70;90.70;;;;;;5037695;28;20411;-90
2023/10/30 08:08:06;;;;;;;36.33;33.70;;;10.80;90.50;;;;;;5055709;28;20183;-90
2023/10/30 08:10:31;;;;;;;39.93;36.30;;;10.90;90.40;;;;;;5037772;28;20204;-90
2023/10/30 08:12:58;;;;;;;32.87;30.10;;;10.90;90.30;;;;;;5055431;28;20221;-89
2023/10/30 08:15:23;;;;;;;27.80;23.50;;;11.00;90.10;;;;;;5037424;28;20192;-90
2023/10/30 08:17:49;;;;;;;25.27;22.47;;;11.00;90.00;;;;;;5055516;28;20174;-90
2023/10/30 08:20:14;;;;;;;37.63;34.73;;;11.10;89.70;;;;;;5055219;28;20175;-90
2023/10/30 08:22:40;;;;;;;37.13;33.90;;;11.10;89.60;;;;;;5056037;28;20191;-91
2023/10/30 08:25:05;;;;;;;24.10;21.83;;;11.20;89.50;;;;;;5037432;28;20199;-91
2023/10/30 08:27:32;;;;;;;25.10;22.47;;;11.30;89.40;;;;;;5055409;28;20195;-89
2023/10/30 08:29:58;;;;;;;32.00;23.10;;;11.40;89.50;;;;;;5037610;28;20254;-90
2023/10/30 08:32:23;;;;;;;38.73;35.30;;;11.40;89.10;;;;;;5037508;28;20658;-92
2023/10/30 08:34:49;;;;;;;41.80;38.30;;;11.50;89.00;;;;;;5037283;28;20973;-91
2023/10/30 08:37:15;;;;;;;27.53;25.00;;;11.50;88.50;;;;;;5037244;28;20168;-90
2023/10/30 08:39:40;;;;;;;26.70;24.40;;;11.60;88.40;;;;;;5037191;28;20179;-88
2023/10/30 08:42:06;;;;;;;26.53;24.00;;;11.70;88.60;;;;;;5054698;28;20180;-88
2023/10/30 08:44:32;;;;;;;26.13;23.60;;;11.80;88.20;;;;;;5037006;28;20180;-89
2023/10/30 08:46:58;;;;;;;26.33;23.03;;;11.80;88.10;;;;;;5036994;28;20184;-92
2023/10/30 08:49:25;;;;;;;26.30;23.53;;;11.90;87.90;;;;;;5054901;28;20188;-90
2023/10/30 08:51:51;;;;;;;26.80;24.10;;;11.90;87.80;;;;;;5036776;28;20303;-91
2023/10/30 08:54:16;;;;;;;25.90;23.00;;;12.00;87.80;;;;;;5036815;28;20212;-90
2023/10/30 08:56:43;;;;;;;26.43;23.70;;;12.00;87.60;;;;;;5036888;28;20196;-90
2023/10/30 08:59:09;;;;;;;25.40;22.60;;;12.10;87.50;;;;;;5054781;28;20171;-90
2023/10/30 09:01:34;;;;;;;23.43;21.33;;;12.20;87.30;;;;;;5036844;28;20176;-91
2023/10/30 09:04:00;;;;;;;25.57;22.97;;;12.30;87.10;;;;;;5054751;28;20175;-92
2023/10/30 09:06:27;;;;;;;23.80;21.60;;;12.30;86.50;;;;;;5054099;28;20318;-91
2023/10/30 09:08:53;;;;;;;24.40;21.87;;;12.40;86.80;;;;;;5036532;28;20271;-91
2023/10/30 09:11:19;;;;;;;24.17;22.10;;;12.50;86.60;;;;;;5036539;28;20577;-91
2023/10/30 09:13:44;;;;;;;24.17;21.90;;;12.50;86.40;;;;;;5037324;28;20182;-92
2023/10/30 09:16:11;;;;;;;25.53;22.27;;;12.70;86.10;;;;;;5036859;28;20199;-92
2023/10/30 09:18:37;;;;;;;25.67;23.20;;;12.70;85.70;;;;;;5036502;28;20172;-91
2023/10/30 09:21:03;;;;;;;23.73;21.80;;;12.70;85.60;;;;;;5036387;28;20263;-91
2023/10/30 09:23:29;;;;;;;25.00;22.47;;;12.80;85.80;;;;;;5036480;28;20623;-91
2023/10/30 09:25:54;;;;;;;24.30;22.07;;;12.80;85.50;;;;;;5054026;28;20290;-91
2023/10/30 09:28:20;;;;;;;25.43;22.83;;;12.90;85.50;;;;;;5036472;28;20182;-91
2023/10/30 09:30:45;;;;;;;24.47;22.43;;;13.00;85.50;;;;;;5036095;28;20616;-91
2023/10/30 09:33:11;;;;;;;25.30;23.00;;;13.00;85.30;;;;;;5036489;28;20521;-91
2023/10/30 09:35:38;;;;;;;25.03;22.40;;;13.10;85.20;;;;;;5053901;28;20220;-90
2023/10/30 09:38:04;;;;;;;25.33;22.97;;;13.30;85.40;;;;;;5036092;28;20255;-92
2023/10/30 09:40:30;;;;;;;25.73;23.23;;;13.30;85.00;;;;;;5053925;28;20218;-91
2023/10/30 09:42:56;;;;;;;25.33;22.70;;;13.40;85.00;;;;;;5035951;28;20662;-91
2023/10/30 09:45:24;;;;;;;25.30;23.07;;;13.30;84.40;;;;;;5036072;28;20749;-91
2023/10/30 09:47:57;;;;;;;26.17;23.50;;;13.40;84.10;;;;;;5036672;28;20172;-92
2023/10/30 09:50:25;;;;;;;25.30;22.87;;;13.50;83.70;;;;;;5038687;28;20176;-92
2023/10/30 09:52:52;;;;;;;26.27;23.10;;;13.50;83.80;;;;;;5036130;28;20184;-89
2023/10/30 09:55:19;;;;;;;38.57;34.90;;;13.50;82.90;;;;;;5035839;28;20196;-90
2023/10/30 09:57:48;;;;;;;39.33;34.93;;;13.60;82.90;;;;;;5053422;28;20167;-91
2023/10/30 10:00:15;;;;;;;35.93;32.97;;;13.70;83.60;;;;;;5053273;28;20212;-91
2023/10/30 10:02:41;;;;;;;36.20;32.90;;;13.80;82.90;;;;;;5035540;28;20192;-91
2023/10/30 10:05:08;;;;;;;37.00;33.03;;;13.80;82.40;;;;;;5035611;28;20204;-92
2023/10/30 10:07:34;;;;;;;37.07;33.97;;;13.90;82.60;;;;;;5035866;28;20184;-91
2023/10/30 10:10:01;;;;;;;36.15;33.08;;;13.90;82.10;;;;;;5035832;28;20234;-90
2023/10/30 10:12:29;;;;;;;36.03;32.92;;;14.00;83.00;;;;;;5035465;28;20254;-91
2023/10/30 10:14:54;;;;;;;36.67;33.07;;;14.00;82.40;;;;;;5035756;28;20192;-90
2023/10/30 10:17:20;;;;;;;35.90;32.53;;;14.10;82.20;;;;;;5052831;28;20179;-91
2023/10/30 10:19:47;;;;;;;33.60;30.63;;;14.10;81.90;;;;;;5035175;28;20194;-90
2023/10/30 10:22:29;;;;;;;25.98;23.23;;;14.10;82.10;;;;;;5053061;28;20226;-91
2023/10/30 10:24:58;;;;;;;25.83;23.05;;;14.10;81.80;;;;;;5036478;28;20199;-92
2023/10/30 10:27:24;;;;;;;34.50;31.07;;;13.90;81.60;;;;;;5052946;28;20184;-92
2023/10/30 10:29:54;;;;;;;35.43;32.30;;;13.90;82.50;;;;;;5036190;28;20647;-94
2023/10/30 10:32:25;;;;;;;37.42;34.30;;;13.80;81.50;;;;;;5053859;28;20192;-93
2023/10/30 10:34:51;;;;;;;24.40;22.00;;;13.90;81.20;;;;;;5037060;28;20249;-92
2023/10/30 10:37:17;;;;;;;30.40;24.53;;;13.90;81.70;;;;;;5036770;28;20180;-93
2023/10/30 10:39:51;;;;;;;29.70;27.40;;;13.80;81.40;;;;;;5035065;28;20210;-91
2023/10/30 10:42:18;;;;;;;33.23;29.90;;;13.90;81.90;;;;;;5053152;28;20695;-93
2023/10/30 10:44:45;;;;;;;33.53;30.50;;;14.00;81.40;;;;;;5052869;28;20175;-92
2023/10/30 10:47:11;;;;;;;24.95;21.25;;;14.10;82.00;;;;;;5035029;28;20191;-92
2023/10/30 10:49:36;;;;;;;24.35;21.42;;;14.10;81.10;;;;;;5035352;28;20176;-92
2023/10/30 10:52:05;;;;;;;22.50;20.08;;;14.20;81.90;;;;;;5035261;28;20203;-92
2023/10/30 10:54:40;;;;;;;23.88;21.48;;;14.20;80.90;;;;;;5035023;28;20184;-91
2023/10/30 10:57:08;;;;;;;22.37;20.47;;;14.20;80.60;;;;;;5035167;28;20186;-91
2023/10/30 10:59:36;;;;;;;27.83;22.87;;;14.30;81.40;;;;;;5034903;28;20644;-91
2023/10/30 11:02:10;;;;;;;24.00;21.58;;;14.30;80.80;;;;;;5035228;28;20172;-91
2023/10/30 11:04:36;;;;;;;27.23;21.37;;;14.30;80.70;;;;;;5035913;28;20182;-90
2023/10/30 11:07:09;;;;;;;24.33;20.67;;;14.20;80.60;;;;;;5035072;28;20172;-90
2023/10/30 11:09:57;;;;;;;21.57;19.53;;;14.20;80.10;;;;;;5052669;28;20157;-91
2023/10/30 11:12:48;;;;;;;22.13;19.95;;;14.20;81.20;;;;;;5052643;28;20219;-91
2023/10/30 11:15:30;;;;;;;22.20;20.10;;;14.30;80.20;;;;;;5035106;28;20192;-90
2023/10/30 11:18:21;;;;;;;23.73;21.33;;;14.10;79.60;;;;;;5035049;28;20226;-89
2023/10/30 11:20:52;;;;;;;23.77;21.30;;;13.90;80.60;;;;;;5034961;28;20226;-90
2023/10/30 11:23:48;;;;;;;23.42;20.70;;;14.20;81.20;;;;;;5034976;28;20537;-89
2023/10/30 11:26:41;;;;;;;22.80;20.45;;;14.60;80.70;;;;;;5052564;28;20266;-90
2023/10/30 11:29:21;;;;;;;24.92;20.58;;;14.70;79.40;;;;;;5053011;28;20160;-91
2023/10/30 11:31:55;;;;;;;23.58;21.50;;;14.80;79.50;;;;;;5038220;28;20287;-89
2023/10/30 11:34:31;;;;;;;22.83;20.63;;;14.30;79.30;;;;;;5056000;28;20620;-90
2023/10/30 11:37:09;;;;;;;25.38;20.70;;;14.30;80.40;;;;;;5056072;28;20646;-91
2023/10/30 11:39:40;;;;;;;22.60;20.25;;;14.30;80.90;;;;;;5038423;28;20329;-90
2023/10/30 11:42:30;;;;;;;22.40;19.80;;;14.20;80.80;;;;;;5038423;28;20215;-91
2023/10/30 11:45:14;;;;;;;26.30;20.02;;;14.20;81.20;;;;;;5038497;28;20203;-91
2023/10/30 11:47:42;;;;;;;25.17;20.95;;;14.30;81.20;;;;;;5037978;28;20577;-91
2023/10/30 11:50:09;;;;;;;22.45;20.20;;;14.20;80.30;;;;;;5056072;28;20168;-90
2023/10/30 11:52:36;;;;;;;23.53;20.83;;;14.20;80.30;;;;;;5037674;28;20246;-92
2023/10/30 11:55:06;;;;;;;23.20;20.77;;;14.20;80.20;;;;;;5055554;28;20558;-88
2023/10/30 11:57:33;;;;;;;23.27;21.15;;;14.50;81.00;;;;;;5037726;28;20184;-89
2023/10/30 12:00:00;;;;;;;28.63;20.20;;;14.40;79.70;;;;;;5037763;28;20556;-89
2023/10/30 12:02:26;;;;;;;25.70;20.67;;;14.30;80.20;;;;;;5037870;28;20263;-90
2023/10/30 12:04:52;;;;;;;22.70;20.50;;;14.30;80.40;;;;;;5037637;28;20668;-90
2023/10/30 12:07:17;;;;;;;22.65;20.40;;;14.50;80.90;;;;;;5038020;28;20184;-91
2023/10/30 12:09:43;;;;;;;24.83;21.65;;;14.60;80.20;;;;;;5037787;28;20176;-91
2023/10/30 12:12:09;;;;;;;24.08;20.83;;;14.70;79.60;;;;;;5037375;28;20266;-92
2023/10/30 12:14:34;;;;;;;20.98;19.02;;;14.70;79.90;;;;;;5037727;28;20184;-91
2023/10/30 12:17:00;;;;;;;24.20;20.52;;;14.50;79.90;;;;;;5055345;28;20172;-90
2023/10/30 12:19:25;;;;;;;;;;;14.40;79.10;;;;;;5039861;28;20103;-91
2023/10/30 12:21:51;;;;;;;22.65;20.23;;;14.60;79.70;;;;;;5038230;28;20294;-90
2023/10/30 12:24:24;;;;;;;21.80;19.90;;;14.70;79.50;;;;;;5037353;28;20210;-89
2023/10/30 12:26:50;;;;;;;28.50;25.70;;;14.90;79.70;;;;;;5037155;28;20215;-92
2023/10/30 12:29:22;;;;;;;26.15;23.42;;;14.80;79.20;;;;;;5055030;28;20176;-90
2023/10/30 12:32:03;;;;;;;28.20;25.33;;;15.00;79.20;;;;;;5037018;28;20200;-91
2023/10/30 12:34:30;;;;;;;26.00;23.60;;;14.90;77.90;;;;;;5037177;28;20539;-91
2023/10/30 12:36:56;;;;;;;27.50;24.73;;;14.90;79.50;;;;;;5037334;28;20255;-89